createdAt,value
2023-03-10T00:00:28.591Z,12.64
2023-03-10T00:01:34.013Z,11.27
2023-03-10T00:02:34.260Z,11.69
2023-03-10T00:03:31.101Z,12.66
2023-03-10T00:04:28.279Z,12.61
2023-03-10T00:05:25.217Z,12.24
2023-03-10T00:06:24.757Z,10.44
2023-03-10T00:07:21.753Z,12.78
2023-03-10T00:08:18.516Z,12.66
2023-03-10T00:09:15.271Z,12.17
2023-03-10T00:10:14.438Z,11.77
2023-03-10T00:11:12.660Z,10.96
2023-03-10T00:12:09.620Z,12.45
2023-03-10T00:13:06.364Z,12.36
2023-03-10T00:14:03.167Z,11.83
2023-03-10T00:14:59.931Z,12.08
2023-03-10T00:15:57.033Z,12.30
2023-03-10T00:16:53.835Z,11.91
2023-03-10T00:17:50.702Z,12.21
2023-03-10T00:18:48.902Z,12.53
2023-03-10T00:19:45.745Z,12.32
2023-03-10T00:20:42.601Z,10.68
2023-03-10T00:21:39.461Z,11.88
2023-03-10T00:22:38.947Z,11.67
2023-03-10T00:23:37.442Z,11.67
2023-03-10T00:24:34.505Z,11.53
2023-03-10T00:25:33.771Z,12.26
2023-03-10T00:26:30.663Z,12.42
2023-03-10T00:27:27.457Z,11.76
2023-03-10T00:28:26.276Z,12.30
2023-03-10T00:29:23.184Z,11.40
2023-03-10T00:30:20.136Z,10.74
2023-03-10T00:31:22.647Z,11.57
2023-03-10T00:32:19.661Z,11.96
2023-03-10T00:33:16.589Z,12.31
2023-03-10T00:34:13.473Z,12.42
2023-03-10T00:35:10.246Z,11.85
2023-03-10T00:36:13.479Z,10.03
2023-03-10T00:37:10.320Z,12.05
2023-03-10T00:38:07.155Z,12.28
2023-03-10T00:39:05.421Z,11.61
2023-03-10T00:40:02.258Z,10.32
2023-03-10T00:41:04.360Z,12.55
2023-03-10T00:42:01.269Z,12.32
2023-03-10T00:42:59.496Z,10.82
2023-03-10T00:43:57.410Z,12.32
2023-03-10T00:44:54.233Z,12.39
2023-03-10T00:45:51.120Z,11.43
2023-03-10T00:46:48.062Z,12.44
2023-03-10T00:47:44.965Z,12.40
2023-03-10T00:48:42.257Z,12.16
2023-03-10T00:49:39.088Z,12.21
2023-03-10T00:50:35.895Z,12.21
2023-03-10T00:51:33.913Z,11.47
2023-03-10T00:52:34.279Z,11.50
2023-03-10T00:53:31.421Z,11.98
2023-03-10T00:54:28.254Z,11.83
2023-03-10T00:55:25.131Z,11.20
2023-03-10T00:56:26.160Z,11.24
2023-03-10T00:57:22.935Z,11.38
2023-03-10T00:58:19.697Z,12.21
2023-03-10T00:59:16.585Z,12.12
2023-03-10T01:00:17.964Z,11.40
2023-03-10T01:01:34.409Z,12.07
2023-03-10T01:02:31.240Z,12.17
2023-03-10T01:03:29.133Z,12.18
2023-03-10T01:04:26.067Z,12.24
2023-03-10T01:05:22.943Z,10.58
2023-03-10T01:06:20.091Z,12.17
2023-03-10T01:07:16.904Z,11.73
2023-03-10T01:08:13.719Z,10.51
2023-03-10T01:09:10.624Z,11.41
2023-03-10T01:10:07.772Z,11.99
2023-03-10T01:11:04.739Z,12.05
2023-03-10T01:12:01.475Z,12.07
2023-03-10T01:12:58.271Z,11.71
2023-03-10T01:13:59.771Z,12.30
2023-03-10T01:14:57.705Z,12.24
2023-03-10T01:15:54.588Z,12.18
2023-03-10T01:16:51.480Z,12.16
2023-03-10T01:17:48.366Z,12.30
2023-03-10T01:18:45.284Z,11.97
2023-03-10T01:19:42.023Z,12.17
2023-03-10T01:20:41.642Z,12.20
2023-03-10T01:21:39.429Z,11.95
2023-03-10T01:22:36.283Z,11.69
2023-03-10T01:23:33.107Z,12.14
2023-03-10T01:24:30.009Z,11.47
2023-03-10T01:25:27.569Z,12.13
2023-03-10T01:26:24.509Z,12.22
2023-03-10T01:27:21.282Z,11.45
2023-03-10T01:28:19.546Z,11.16
2023-03-10T01:29:16.393Z,10.81
2023-03-10T01:30:13.662Z,11.69
2023-03-10T01:31:10.537Z,12.16
2023-03-10T01:32:07.744Z,12.07
2023-03-10T01:33:05.088Z,12.14
2023-03-10T01:34:01.978Z,11.68
2023-03-10T01:34:58.758Z,11.93
2023-03-10T01:35:55.629Z,12.08
2023-03-10T01:36:52.408Z,11.95
2023-03-10T01:37:49.194Z,11.53
2023-03-10T01:38:46.748Z,11.43
2023-03-10T01:39:43.563Z,11.36
2023-03-10T01:40:41.431Z,11.15
2023-03-10T01:41:40.185Z,11.13
2023-03-10T01:42:38.128Z,12.21
2023-03-10T01:43:43.624Z,11.97
2023-03-10T01:44:40.387Z,12.00
2023-03-10T01:45:37.059Z,12.03
2023-03-10T01:46:50.548Z,12.06
2023-03-10T01:47:47.453Z,11.96
2023-03-10T01:48:44.330Z,11.87
2023-03-10T01:49:46.168Z,12.07
2023-03-10T01:50:46.983Z,12.04
2023-03-10T01:51:48.954Z,11.35
2023-03-10T01:52:58.221Z,12.12
2023-03-10T01:53:55.071Z,11.86
2023-03-10T01:54:57.880Z,12.18
2023-03-10T01:56:00.807Z,12.25
2023-03-10T01:56:59.031Z,11.70
2023-03-10T01:57:57.826Z,11.69
2023-03-10T01:58:55.169Z,12.09
2023-03-10T01:59:52.748Z,12.17
2023-03-10T02:00:54.161Z,11.82
2023-03-10T02:01:52.768Z,11.11
2023-03-10T02:02:55.703Z,11.94
2023-03-10T02:04:00.298Z,10.54
2023-03-10T02:04:58.365Z,11.26
2023-03-10T02:05:59.983Z,11.98
2023-03-10T02:06:58.004Z,10.84
2023-03-10T02:07:56.466Z,11.84
2023-03-10T02:09:06.161Z,10.81
2023-03-10T02:10:04.373Z,11.50
2023-03-10T02:11:01.831Z,10.97
2023-03-10T02:12:00.068Z,11.77
2023-03-10T02:12:56.867Z,10.59
2023-03-10T02:13:55.555Z,11.75
2023-03-10T02:14:54.022Z,11.61
2023-03-10T02:15:51.239Z,11.69
2023-03-10T02:16:48.207Z,11.34
2023-03-10T02:17:45.137Z,11.79
2023-03-10T02:18:46.056Z,11.51
2023-03-10T02:19:55.331Z,11.95
2023-03-10T02:21:10.749Z,11.53
2023-03-10T02:22:11.688Z,11.24
2023-03-10T02:23:14.280Z,11.63
2023-03-10T02:24:39.717Z,11.63
2023-03-10T02:25:50.527Z,11.66
2023-03-10T02:26:59.803Z,11.95
2023-03-10T02:27:57.767Z,12.00
2023-03-10T02:28:59.869Z,11.98
2023-03-10T02:29:59.703Z,12.03
2023-03-10T02:30:57.832Z,11.55
2023-03-10T02:31:56.982Z,11.99
2023-03-10T02:32:59.070Z,10.24
2023-03-10T02:33:56.809Z,11.56
2023-03-10T02:34:53.669Z,11.74
2023-03-10T02:35:50.975Z,11.78
2023-03-10T02:36:48.086Z,11.75
2023-03-10T02:37:44.996Z,12.13
2023-03-10T02:38:41.962Z,12.20
2023-03-10T02:39:38.721Z,11.47
2023-03-10T02:40:49.366Z,12.08
2023-03-10T02:41:46.718Z,12.06
2023-03-10T02:42:43.459Z,11.93
2023-03-10T02:43:40.340Z,12.06
2023-03-10T02:44:40.015Z,12.19
2023-03-10T02:45:41.295Z,11.89
2023-03-10T02:46:38.249Z,12.00
2023-03-10T02:47:35.091Z,11.55
2023-03-10T02:48:35.875Z,12.53
2023-03-10T02:49:36.363Z,12.50
2023-03-10T02:50:38.075Z,12.63
2023-03-10T02:51:38.669Z,11.66
2023-03-10T02:52:50.293Z,12.78
2023-03-10T02:53:47.389Z,12.76
2023-03-10T02:54:44.214Z,12.68
2023-03-10T02:55:41.275Z,12.45
2023-03-10T02:56:38.715Z,11.94
2023-03-10T02:57:35.460Z,11.81
2023-03-10T02:58:32.341Z,10.78
2023-03-10T02:59:29.152Z,11.99
2023-03-10T03:00:25.930Z,11.98
2023-03-10T03:01:22.912Z,11.93
2023-03-10T03:02:19.717Z,11.56
2023-03-10T03:03:20.340Z,11.73
2023-03-10T03:04:17.337Z,11.08
2023-03-10T03:05:14.377Z,11.23
2023-03-10T03:06:11.661Z,11.65
2023-03-10T03:07:08.456Z,10.65
2023-03-10T03:08:07.934Z,11.76
2023-03-10T03:09:05.354Z,11.73
2023-03-10T03:10:08.477Z,11.50
2023-03-10T03:11:06.040Z,12.11
2023-03-10T03:12:03.019Z,11.55
2023-03-10T03:12:59.928Z,11.73
2023-03-10T03:13:56.793Z,12.06
2023-03-10T03:14:54.138Z,11.95
2023-03-10T03:15:51.942Z,11.76
2023-03-10T03:16:48.823Z,12.13
2023-03-10T03:17:45.747Z,12.36
2023-03-10T03:18:42.632Z,12.01
2023-03-10T03:19:39.348Z,11.67
2023-03-10T03:20:38.257Z,11.25
2023-03-10T03:21:35.130Z,11.12
2023-03-10T03:22:32.040Z,11.75
2023-03-10T03:23:28.984Z,11.73
2023-03-10T03:24:25.792Z,11.46
2023-03-10T03:25:25.081Z,11.51
2023-03-10T03:26:24.803Z,9.88
2023-03-10T03:27:21.536Z,11.18
2023-03-10T03:28:18.352Z,11.01
2023-03-10T03:29:17.698Z,11.25
2023-03-10T03:30:20.982Z,10.86
2023-03-10T03:31:23.046Z,10.66
2023-03-10T03:32:19.852Z,11.32
2023-03-10T03:33:16.738Z,11.26
2023-03-10T03:34:13.764Z,11.37
2023-03-10T03:35:17.664Z,10.71
2023-03-10T03:36:14.583Z,10.36
2023-03-10T03:37:11.430Z,11.41
2023-03-10T03:38:08.557Z,10.25
2023-03-10T03:39:08.202Z,10.23
2023-03-10T03:40:14.801Z,10.81
2023-03-10T03:41:11.785Z,11.13
2023-03-10T03:42:08.654Z,9.63
2023-03-10T03:43:05.814Z,10.77
2023-03-10T03:44:02.723Z,11.01
2023-03-10T03:44:59.456Z,9.84
2023-03-10T03:45:56.715Z,10.74
2023-03-10T03:46:53.521Z,11.32
2023-03-10T03:47:51.260Z,10.50
2023-03-10T03:48:48.050Z,11.06
2023-03-10T03:49:44.829Z,10.27
2023-03-10T03:50:41.631Z,11.28
2023-03-10T03:51:38.417Z,7.07
2023-03-10T03:52:35.332Z,10.57
2023-03-10T03:53:33.911Z,11.91
2023-03-10T03:54:30.704Z,12.02
2023-03-10T03:55:28.942Z,10.79
2023-03-10T03:56:25.797Z,11.29
2023-03-10T03:57:23.653Z,8.63
2023-03-10T03:58:20.581Z,10.50
2023-03-10T03:59:17.334Z,11.30
2023-03-10T04:00:25.275Z,12.16
2023-03-10T04:01:22.131Z,11.63
2023-03-10T04:02:19.104Z,9.25
2023-03-10T04:03:16.060Z,11.43
2023-03-10T04:04:12.898Z,11.09
2023-03-10T04:05:09.880Z,10.49
2023-03-10T04:06:08.401Z,8.64
2023-03-10T04:07:05.255Z,11.57
2023-03-10T04:08:02.052Z,10.51
2023-03-10T04:08:58.935Z,11.26
2023-03-10T04:09:55.780Z,11.16
2023-03-10T04:10:54.657Z,10.97
2023-03-10T04:11:51.440Z,10.56
2023-03-10T04:12:48.270Z,11.71
2023-03-10T04:13:45.171Z,11.50
2023-03-10T04:14:42.040Z,11.98
2023-03-10T04:15:38.955Z,11.91
2023-03-10T04:16:35.941Z,12.02
2023-03-10T04:17:32.982Z,11.91
2023-03-10T04:18:29.904Z,11.83
2023-03-10T04:19:26.970Z,11.82
2023-03-10T04:20:25.208Z,11.27
2023-03-10T04:21:22.054Z,12.12
2023-03-10T04:22:18.901Z,11.43
2023-03-10T04:23:16.258Z,11.43
2023-03-10T04:24:13.172Z,11.42
2023-03-10T04:25:10.829Z,10.08
2023-03-10T04:26:10.959Z,11.58
2023-03-10T04:27:09.654Z,12.24
2023-03-10T04:28:06.562Z,11.49
2023-03-10T04:29:03.668Z,12.17
2023-03-10T04:30:04.810Z,11.14
2023-03-10T04:31:01.561Z,12.20
2023-03-10T04:32:05.250Z,12.15
2023-03-10T04:33:03.241Z,11.25
2023-03-10T04:34:00.149Z,10.67
2023-03-10T04:34:56.960Z,12.18
2023-03-10T04:35:54.473Z,10.94
2023-03-10T04:36:51.351Z,12.11
2023-03-10T04:37:48.265Z,11.16
2023-03-10T04:38:45.124Z,12.17
2023-03-10T04:39:42.034Z,12.06
2023-03-10T04:40:39.378Z,12.30
2023-03-10T04:41:36.914Z,11.90
2023-03-10T04:42:33.845Z,12.17
2023-03-10T04:43:31.344Z,11.36
2023-03-10T04:44:31.240Z,11.48
2023-03-10T04:45:28.604Z,10.92
2023-03-10T04:46:25.566Z,11.92
2023-03-10T04:47:22.724Z,11.48
2023-03-10T04:48:19.559Z,11.56
2023-03-10T04:49:16.494Z,11.34
2023-03-10T04:50:17.482Z,11.87
2023-03-10T04:51:14.364Z,11.05
2023-03-10T04:52:12.260Z,11.53
2023-03-10T04:53:09.147Z,10.77
2023-03-10T04:54:05.944Z,11.50
2023-03-10T04:55:02.776Z,11.59
2023-03-10T04:56:01.201Z,11.66
2023-03-10T04:56:58.042Z,10.82
2023-03-10T04:57:54.781Z,11.88
2023-03-10T04:58:51.825Z,11.83
2023-03-10T04:59:48.678Z,12.29
2023-03-10T05:01:01.893Z,11.96
2023-03-10T05:02:00.539Z,12.05
2023-03-10T05:02:57.328Z,12.06
2023-03-10T05:03:54.280Z,11.42
2023-03-10T05:04:51.105Z,8.73
2023-03-10T05:05:48.037Z,11.47
2023-03-10T05:06:44.807Z,11.45
2023-03-10T05:07:42.165Z,10.34
2023-03-10T05:08:39.060Z,11.63
2023-03-10T05:09:37.886Z,11.93
2023-03-10T05:10:34.951Z,12.00
2023-03-10T05:11:32.616Z,12.06
2023-03-10T05:12:29.525Z,11.10
2023-03-10T05:13:26.360Z,11.31
2023-03-10T05:14:23.153Z,12.28
2023-03-10T05:15:20.032Z,12.35
2023-03-10T05:16:20.345Z,12.19
2023-03-10T05:17:17.284Z,11.36
2023-03-10T05:18:14.136Z,12.24
2023-03-10T05:19:10.983Z,12.09
2023-03-10T05:20:09.633Z,11.51
2023-03-10T05:21:06.664Z,11.91
2023-03-10T05:22:06.057Z,11.21
2023-03-10T05:23:02.940Z,11.70
2023-03-10T05:23:59.804Z,11.68
2023-03-10T05:24:56.620Z,11.47
2023-03-10T05:25:53.516Z,11.34
2023-03-10T05:26:50.709Z,11.71
2023-03-10T05:27:47.654Z,10.40
2023-03-10T05:28:44.616Z,11.96
2023-03-10T05:29:41.479Z,11.11
2023-03-10T05:30:38.370Z,11.83
2023-03-10T05:31:35.424Z,12.01
2023-03-10T05:32:35.500Z,12.30
2023-03-10T05:33:32.606Z,12.19
2023-03-10T05:34:30.715Z,12.06
2023-03-10T05:35:27.477Z,11.78
2023-03-10T05:36:24.515Z,12.04
2023-03-10T05:37:21.403Z,10.67
2023-03-10T05:38:18.381Z,11.90
2023-03-10T05:39:15.225Z,10.83
2023-03-10T05:40:20.122Z,11.25
2023-03-10T05:41:17.045Z,11.40
2023-03-10T05:42:13.862Z,11.36
2023-03-10T05:43:11.498Z,11.33
2023-03-10T05:44:08.282Z,11.82
2023-03-10T05:45:06.308Z,11.88
2023-03-10T05:46:03.603Z,11.86
2023-03-10T05:47:00.581Z,11.82
2023-03-10T05:47:59.965Z,11.99
2023-03-10T05:48:57.696Z,11.90
2023-03-10T05:49:54.646Z,12.51
2023-03-10T05:50:58.391Z,12.59
2023-03-10T05:51:55.284Z,12.00
2023-03-10T05:52:52.214Z,11.47
2023-03-10T05:53:49.152Z,12.63
2023-03-10T05:54:45.984Z,12.80
2023-03-10T05:55:42.778Z,12.28
2023-03-10T05:56:39.838Z,12.83
2023-03-10T05:57:37.068Z,11.94
2023-03-10T05:58:34.025Z,12.12
2023-03-10T05:59:30.954Z,12.40
2023-03-10T06:00:28.100Z,11.89
2023-03-10T06:01:24.882Z,11.80
2023-03-10T06:02:21.666Z,11.17
2023-03-10T06:03:20.034Z,11.69
2023-03-10T06:04:16.916Z,12.00
2023-03-10T06:05:13.902Z,11.46
2023-03-10T06:06:11.641Z,12.16
2023-03-10T06:07:08.424Z,12.03
2023-03-10T06:08:05.771Z,11.34
2023-03-10T06:09:03.673Z,12.22
2023-03-10T06:10:00.609Z,12.19
2023-03-10T06:10:58.026Z,11.83
2023-03-10T06:11:54.858Z,11.25
2023-03-10T06:12:51.614Z,12.07
2023-03-10T06:13:48.649Z,11.81
2023-03-10T06:14:48.520Z,12.34
2023-03-10T06:15:50.912Z,12.59
2023-03-10T06:16:51.593Z,12.12
2023-03-10T06:17:48.529Z,12.39
2023-03-10T06:18:45.624Z,12.54
2023-03-10T06:19:43.076Z,12.41
2023-03-10T06:20:40.128Z,12.38
2023-03-10T06:21:36.927Z,12.08
2023-03-10T06:22:33.816Z,11.96
2023-03-10T06:23:30.657Z,12.02
2023-03-10T06:24:28.971Z,11.69
2023-03-10T06:25:25.763Z,12.32
2023-03-10T06:26:22.947Z,11.31
2023-03-10T06:27:19.812Z,11.72
2023-03-10T06:28:16.685Z,10.29
2023-03-10T06:29:13.438Z,12.07
2023-03-10T06:30:10.967Z,11.75
2023-03-10T06:31:19.847Z,11.52
2023-03-10T06:32:16.911Z,10.33
2023-03-10T06:33:13.867Z,11.47
2023-03-10T06:34:10.736Z,11.13
2023-03-10T06:35:07.960Z,11.67
2023-03-10T06:36:05.780Z,11.70
2023-03-10T06:37:02.716Z,11.75
2023-03-10T06:37:59.474Z,11.46
2023-03-10T06:38:56.641Z,11.08
2023-03-10T06:39:53.470Z,11.90
2023-03-10T06:40:50.597Z,11.97
2023-03-10T06:41:47.588Z,10.69
2023-03-10T06:42:44.655Z,11.92
2023-03-10T06:43:41.699Z,10.30
2023-03-10T06:44:40.142Z,9.90
2023-03-10T06:45:37.159Z,9.92
2023-03-10T06:46:33.989Z,11.55
2023-03-10T06:47:30.990Z,10.98
2023-03-10T06:48:27.816Z,11.74
2023-03-10T06:49:30.357Z,8.85
2023-03-10T06:50:28.489Z,11.17
2023-03-10T06:51:26.199Z,11.33
2023-03-10T06:52:23.159Z,9.43
2023-03-10T06:53:22.308Z,9.18
2023-03-10T06:54:19.323Z,12.09
2023-03-10T06:55:17.089Z,12.11
2023-03-10T06:56:24.080Z,11.33
2023-03-10T06:57:21.181Z,10.72
2023-03-10T06:58:17.961Z,11.13
2023-03-10T06:59:15.067Z,11.07
2023-03-10T07:00:15.816Z,10.58
2023-03-10T07:01:31.554Z,11.90
2023-03-10T07:02:28.428Z,11.52
2023-03-10T07:03:26.403Z,11.67
2023-03-10T07:04:23.268Z,11.23
2023-03-10T07:05:23.135Z,12.15
2023-03-10T07:06:20.909Z,12.08
2023-03-10T07:07:17.883Z,11.55
2023-03-10T07:08:14.709Z,12.15
2023-03-10T07:09:11.436Z,12.01
2023-03-10T07:10:09.094Z,12.26
2023-03-10T07:11:06.020Z,10.10
2023-03-10T07:12:02.991Z,12.13
2023-03-10T07:12:59.812Z,12.11
2023-03-10T07:13:56.904Z,11.80
2023-03-10T07:14:53.748Z,12.34
2023-03-10T07:15:50.786Z,11.30
2023-03-10T07:16:47.704Z,11.48
2023-03-10T07:17:44.776Z,12.23
2023-03-10T07:18:41.802Z,11.79
2023-03-10T07:19:39.039Z,12.00
2023-03-10T07:20:38.756Z,12.13
2023-03-10T07:21:35.668Z,11.64
2023-03-10T07:22:32.605Z,11.83
2023-03-10T07:23:29.469Z,12.16
2023-03-10T07:24:26.309Z,11.24
2023-03-10T07:25:24.890Z,12.75
2023-03-10T07:26:21.805Z,12.82
2023-03-10T07:27:18.596Z,12.71
2023-03-10T07:28:15.553Z,12.28
2023-03-10T07:29:12.476Z,11.93
2023-03-10T07:30:10.337Z,12.28
2023-03-10T07:31:10.469Z,12.52
2023-03-10T07:32:07.509Z,11.28
2023-03-10T07:33:04.664Z,11.15
2023-03-10T07:34:02.138Z,12.51
2023-03-10T07:35:01.985Z,12.82
2023-03-10T07:36:00.202Z,12.24
2023-03-10T07:36:57.163Z,12.44
2023-03-10T07:37:53.967Z,12.11
2023-03-10T07:38:50.932Z,12.52
2023-03-10T07:39:47.941Z,10.56
2023-03-10T07:40:44.831Z,11.38
2023-03-10T07:41:44.628Z,11.98
2023-03-10T07:42:44.765Z,11.15
2023-03-10T07:43:41.508Z,13.23
2023-03-10T07:44:38.262Z,13.33
2023-03-10T07:45:35.723Z,10.96
2023-03-10T07:46:32.640Z,13.20
2023-03-10T07:47:29.529Z,11.66
2023-03-10T07:48:26.445Z,11.97
2023-03-10T07:49:23.573Z,11.89
2023-03-10T07:50:21.941Z,13.27
2023-03-10T07:51:19.296Z,14.08
2023-03-10T07:52:16.520Z,13.98
2023-03-10T07:53:15.596Z,14.01
2023-03-10T07:54:15.011Z,14.00
2023-03-10T07:55:12.435Z,13.76
2023-03-10T07:56:12.191Z,13.93
2023-03-10T07:57:09.078Z,13.94
2023-03-10T07:58:06.304Z,14.15
2023-03-10T07:59:03.377Z,13.89
2023-03-10T08:00:00.339Z,13.26
2023-03-10T08:01:00.239Z,12.61
2023-03-10T08:01:57.026Z,12.96
2023-03-10T08:02:53.852Z,11.18
2023-03-10T08:03:56.698Z,14.11
2023-03-10T08:04:54.777Z,13.83
2023-03-10T08:05:51.858Z,12.91
2023-03-10T08:06:48.649Z,12.82
2023-03-10T08:07:45.467Z,13.82
2023-03-10T08:11:22.434Z,14.71
2023-03-10T08:12:57.392Z,10.46
2023-03-10T08:13:54.585Z,11.11
2023-03-10T08:15:07.906Z,14.74
2023-03-10T08:16:05.441Z,14.51
2023-03-10T08:17:02.653Z,14.94
2023-03-10T08:18:00.177Z,14.90
2023-03-10T08:18:57.132Z,14.68
2023-03-10T08:19:54.061Z,14.08
2023-03-10T08:20:50.904Z,13.13
2023-03-10T08:21:47.843Z,13.97
2023-03-10T08:22:44.815Z,14.69
2023-03-10T08:23:41.726Z,13.82
2023-03-10T08:24:39.311Z,15.10
2023-03-10T08:25:38.093Z,13.84
2023-03-10T08:26:35.584Z,14.89
2023-03-10T08:27:36.943Z,15.22
2023-03-10T08:28:35.349Z,13.74
2023-03-10T08:29:32.329Z,14.66
2023-03-10T08:30:29.346Z,15.46
2023-03-10T08:31:26.337Z,15.82
2023-03-10T08:32:23.285Z,13.74
2023-03-10T08:33:22.090Z,15.46
2023-03-10T08:34:21.949Z,15.85
2023-03-10T08:35:19.089Z,15.91
2023-03-10T08:36:29.288Z,15.29
2023-03-10T08:37:26.309Z,13.55
2023-03-10T08:38:23.262Z,14.68
2023-03-10T08:39:20.200Z,15.88
2023-03-10T08:40:17.294Z,14.19
2023-03-10T08:41:22.814Z,16.30
2023-03-10T08:42:19.701Z,15.39
2023-03-10T08:43:30.058Z,16.09
2023-03-10T08:44:27.832Z,13.40
2023-03-10T08:45:25.022Z,13.86
2023-03-10T08:46:24.770Z,13.44
2023-03-10T08:47:30.451Z,13.09
2023-03-10T08:48:31.126Z,14.93
2023-03-10T08:49:28.465Z,15.17
2023-03-10T08:50:25.390Z,14.47
2023-03-10T08:51:26.325Z,15.66
2023-03-10T08:52:24.444Z,15.64
2023-03-10T08:53:21.373Z,15.32
2023-03-10T08:54:22.690Z,15.33
2023-03-10T08:55:19.574Z,15.43
2023-03-10T08:56:18.386Z,14.35
2023-03-10T08:57:15.248Z,14.16
2023-03-10T08:58:12.090Z,14.96
2023-03-10T08:59:11.991Z,15.42
2023-03-10T09:00:12.504Z,14.82
2023-03-10T09:01:09.464Z,16.40
2023-03-10T09:02:07.106Z,16.14
2023-03-10T09:03:08.981Z,15.62
2023-03-10T09:04:08.511Z,15.81
2023-03-10T09:05:05.668Z,16.44
2023-03-10T09:06:03.875Z,15.91
2023-03-10T09:07:00.715Z,15.42
2023-03-10T09:07:57.518Z,16.08
2023-03-10T09:08:54.730Z,16.20
2023-03-10T09:09:52.328Z,16.15
2023-03-10T09:10:52.021Z,16.41
2023-03-10T09:11:51.320Z,16.41
2023-03-10T09:12:48.577Z,15.61
2023-03-10T09:13:45.681Z,15.71
2023-03-10T09:14:42.452Z,16.44
2023-03-10T09:15:41.512Z,16.53
2023-03-10T09:16:40.422Z,15.92
2023-03-10T09:17:40.523Z,15.93
2023-03-10T09:18:37.553Z,15.30
2023-03-10T09:19:34.355Z,15.68
2023-03-10T09:20:31.145Z,15.54
2023-03-10T09:21:33.131Z,14.79
2023-03-10T09:22:30.490Z,15.02
2023-03-10T09:23:27.876Z,13.09
2023-03-10T09:24:25.820Z,15.30
2023-03-10T09:25:23.237Z,15.55
2023-03-10T09:26:20.856Z,15.79
2023-03-10T09:27:17.647Z,15.45
2023-03-10T09:28:17.376Z,16.01
2023-03-10T09:29:15.495Z,15.89
2023-03-10T09:30:13.156Z,15.92
2023-03-10T09:31:16.903Z,16.33
2023-03-10T09:32:16.026Z,16.21
2023-03-10T09:33:19.559Z,16.46
2023-03-10T09:34:16.366Z,16.47
2023-03-10T09:35:13.169Z,16.05
2023-03-10T09:36:10.370Z,16.24
2023-03-10T09:37:08.568Z,16.38
2023-03-10T09:38:05.554Z,16.35
2023-03-10T09:39:02.981Z,15.32
2023-03-10T09:39:59.811Z,16.28
2023-03-10T09:41:08.775Z,16.45
2023-03-10T09:42:26.091Z,16.48
2023-03-10T09:43:39.136Z,16.77
2023-03-10T09:44:43.534Z,16.68
2023-03-10T09:45:46.290Z,16.50
2023-03-10T09:47:03.248Z,16.64
2023-03-10T09:48:26.514Z,16.27
2023-03-10T09:49:55.342Z,16.80
2023-03-10T09:50:56.600Z,16.43
2023-03-10T09:51:53.595Z,15.19
2023-03-10T09:53:07.348Z,15.14
2023-03-10T09:54:46.887Z,15.59
2023-03-10T09:55:48.666Z,16.31
2023-03-10T09:56:45.834Z,16.80
2023-03-10T09:57:43.457Z,15.86
2023-03-10T09:58:46.097Z,16.61
2023-03-10T09:59:47.921Z,15.53
2023-03-10T10:00:45.386Z,16.60
2023-03-10T10:01:47.469Z,16.75
2023-03-10T10:02:49.919Z,16.83
2023-03-10T10:03:54.718Z,16.14
2023-03-10T10:04:57.383Z,16.96
2023-03-10T10:05:55.948Z,15.06
2023-03-10T10:06:54.313Z,17.05
2023-03-10T10:07:57.205Z,16.26
2023-03-10T10:09:04.789Z,16.05
2023-03-10T10:10:19.102Z,17.00
2023-03-10T10:11:17.930Z,16.97
2023-03-10T10:12:23.658Z,16.47
2023-03-10T10:13:25.309Z,16.40
2023-03-10T10:14:29.849Z,16.82
2023-03-10T10:15:35.326Z,13.43
2023-03-10T10:16:47.778Z,16.88
2023-03-10T10:18:02.684Z,16.58
2023-03-10T10:19:20.505Z,16.05
2023-03-10T10:20:25.857Z,17.13
2023-03-10T10:21:46.337Z,16.80
2023-03-10T10:22:45.566Z,16.58
2023-03-10T10:23:54.291Z,16.41
2023-03-10T10:25:09.485Z,16.67
2023-03-10T10:26:15.944Z,16.31
2023-03-10T10:27:18.001Z,16.96
2023-03-10T10:28:34.055Z,17.05
2023-03-10T10:29:37.322Z,16.94
2023-03-10T10:30:39.909Z,15.39
2023-03-10T10:31:36.969Z,16.43
2023-03-10T10:32:33.742Z,16.89
2023-03-10T10:34:07.212Z,16.71
2023-03-10T10:35:15.594Z,15.93
2023-03-10T10:36:18.280Z,16.56
2023-03-10T10:37:23.808Z,16.08
2023-03-10T10:38:28.769Z,16.03
2023-03-10T10:39:33.015Z,16.41
2023-03-10T10:40:34.404Z,16.50
2023-03-10T10:41:34.530Z,16.22
2023-03-10T10:42:34.502Z,16.12
2023-03-10T10:43:39.710Z,16.59
2023-03-10T10:44:42.926Z,16.70
2023-03-10T10:45:40.392Z,15.64
2023-03-10T10:46:37.366Z,15.57
2023-03-10T10:47:52.543Z,15.19
2023-03-10T10:48:52.235Z,15.17
2023-03-10T10:49:49.157Z,15.15
2023-03-10T10:50:54.361Z,16.15
2023-03-10T10:52:19.186Z,15.87
2023-03-10T10:53:24.657Z,16.29
2023-03-10T10:54:44.698Z,16.32
2023-03-10T10:55:45.205Z,16.52
2023-03-10T10:56:53.405Z,13.68
2023-03-10T10:58:01.415Z,16.50
2023-03-10T10:59:20.667Z,16.40
2023-03-10T11:00:32.202Z,16.41
2023-03-10T11:01:59.854Z,16.05
2023-03-10T11:02:57.101Z,14.81
2023-03-10T11:04:06.772Z,15.44
2023-03-10T11:05:12.689Z,16.23
2023-03-10T11:06:18.509Z,16.36
2023-03-10T11:07:27.169Z,16.04
2023-03-10T11:08:27.079Z,16.37
2023-03-10T11:09:24.020Z,15.04
2023-03-10T11:10:28.114Z,15.42
2023-03-10T11:11:39.977Z,15.33
2023-03-10T11:13:05.702Z,15.63
2023-03-10T11:14:29.857Z,15.92
2023-03-10T11:16:11.349Z,16.08
2023-03-10T11:17:26.087Z,16.05
2023-03-10T11:18:36.605Z,16.04
2023-03-10T11:19:49.961Z,15.07
2023-03-10T11:21:00.557Z,15.36
2023-03-10T11:22:13.649Z,15.08
2023-03-10T11:23:24.132Z,15.97
2023-03-10T11:24:52.706Z,15.93
2023-03-10T11:26:16.736Z,15.65
2023-03-10T11:27:36.730Z,15.71
2023-03-10T11:29:13.781Z,13.24
2023-03-10T11:30:20.231Z,14.88
2023-03-10T11:31:20.170Z,15.47
2023-03-10T11:32:41.977Z,15.50
2023-03-10T11:33:50.578Z,15.44
2023-03-10T11:34:53.961Z,15.46
2023-03-10T11:36:01.110Z,13.93
2023-03-10T11:36:58.368Z,15.18
2023-03-10T11:38:15.241Z,15.19
2023-03-10T11:39:25.222Z,14.88
2023-03-10T11:40:52.758Z,15.17
2023-03-10T11:42:03.122Z,13.73
2023-03-10T11:43:21.757Z,14.80
2023-03-10T11:45:00.345Z,11.81
2023-03-10T11:46:03.959Z,15.07
2023-03-10T11:47:19.431Z,14.99
2023-03-10T11:48:53.336Z,13.40
2023-03-10T11:50:03.937Z,14.63
2023-03-10T11:51:06.084Z,14.36
2023-03-10T11:52:18.887Z,15.06
2023-03-10T11:53:23.779Z,15.32
2023-03-10T11:54:27.204Z,15.15
2023-03-10T11:55:25.203Z,13.49
2023-03-10T11:56:24.915Z,14.51
2023-03-10T11:57:24.917Z,14.37
2023-03-10T11:58:32.405Z,12.65
2023-03-10T11:59:35.646Z,15.40
2023-03-10T12:00:54.408Z,14.96
2023-03-10T12:01:54.829Z,15.26
2023-03-10T12:03:12.020Z,14.98
2023-03-10T12:04:13.636Z,15.21
2023-03-10T12:05:59.774Z,15.54
2023-03-10T12:07:52.428Z,14.50
2023-03-10T12:08:57.663Z,15.54
2023-03-10T12:10:25.581Z,15.69
2023-03-10T12:11:27.246Z,14.57
2023-03-10T12:12:38.816Z,15.72
2023-03-10T12:13:49.172Z,14.80
2023-03-10T12:14:47.824Z,15.35
2023-03-10T12:15:46.568Z,15.45
2023-03-10T12:16:44.854Z,15.30
2023-03-10T12:17:43.198Z,15.33
2023-03-10T12:18:40.435Z,15.37
2023-03-10T12:20:16.084Z,15.71
2023-03-10T12:21:26.243Z,15.84
2023-03-10T12:22:25.423Z,13.71
2023-03-10T12:23:25.183Z,15.81
2023-03-10T12:24:45.809Z,15.95
2023-03-10T12:25:44.469Z,15.12
2023-03-10T12:26:41.150Z,16.22
2023-03-10T12:28:16.064Z,15.59
2023-03-10T12:29:21.754Z,15.65
2023-03-10T12:30:56.397Z,15.68
2023-03-10T12:31:55.582Z,14.50
2023-03-10T12:32:52.572Z,15.48
2023-03-10T12:33:52.411Z,14.72
2023-03-10T12:35:23.398Z,15.75
2023-03-10T12:36:39.690Z,14.96
2023-03-10T12:37:36.593Z,15.56
2023-03-10T12:38:42.804Z,15.23
2023-03-10T12:39:44.343Z,14.53
2023-03-10T12:40:49.151Z,14.92
2023-03-10T12:41:49.522Z,15.68
2023-03-10T12:42:47.123Z,15.73
2023-03-10T12:43:52.949Z,15.79
2023-03-10T12:45:08.228Z,15.94
2023-03-10T12:46:12.537Z,15.98
2023-03-10T12:47:09.341Z,16.02
2023-03-10T12:48:17.906Z,15.24
2023-03-10T12:49:42.993Z,15.94
2023-03-10T12:51:05.615Z,15.70
2023-03-10T12:52:25.965Z,16.01
2023-03-10T12:53:36.913Z,16.09
2023-03-10T12:54:44.645Z,16.08
2023-03-10T12:55:43.546Z,14.84
2023-03-10T12:56:43.455Z,16.03
2023-03-10T12:58:02.865Z,15.96
2023-03-10T12:59:16.405Z,14.07
2023-03-10T13:00:25.357Z,15.98
2023-03-10T13:01:25.609Z,15.98
2023-03-10T13:02:26.229Z,15.36
2023-03-10T13:03:44.757Z,15.57
2023-03-10T13:04:43.149Z,14.51
2023-03-10T13:05:59.913Z,15.63
2023-03-10T13:07:03.805Z,15.02
2023-03-10T13:08:25.031Z,15.49